sensor_id;sensor_type;location;lat;lon;timestamp;P1;durP1;ratioP1;P2;durP2;ratioP2
18267;SDS011;9260;49.998;19.880;2022-08-21T00:06:10;225.60;;;106.67;;
18267;SDS011;9260;49.998;19.880;2022-08-21T00:16:14;228.80;;;109.73;;
18267;SDS011;9260;49.998;19.880;2022-08-21T00:26:19;236.80;;;113.53;;
18267;SDS011;9260;49.998;19.880;2022-08-21T00:36:23;227.67;;;109.13;;
18267;SDS011;9260;49.998;19.880;2022-08-21T00:46:28;233.27;;;110.13;;
18267;SDS011;9260;49.998;19.880;2022-08-21T00:56:32;233.53;;;111.43;;
18267;SDS011;9260;49.998;19.880;2022-08-21T01:06:38;234.43;;;111.90;;
18267;SDS011;9260;49.998;19.880;2022-08-21T01:16:43;234.37;;;108.90;;
18267;SDS011;9260;49.998;19.880;2022-08-21T01:26:51;236.73;;;111.63;;
18267;SDS011;9260;49.998;19.880;2022-08-21T01:36:55;236.57;;;108.53;;
18267;SDS011;9260;49.998;19.880;2022-08-21T01:47:02;234.77;;;110.17;;
18267;SDS011;9260;49.998;19.880;2022-08-21T01:57:09;237.97;;;113.03;;
18267;SDS011;9260;49.998;19.880;2022-08-21T02:07:14;232.33;;;110.97;;
18267;SDS011;9260;49.998;19.880;2022-08-21T02:17:18;238.43;;;113.13;;
18267;SDS011;9260;49.998;19.880;2022-08-21T02:27:24;248.20;;;122.83;;
18267;SDS011;9260;49.998;19.880;2022-08-21T02:37:29;236.47;;;115.07;;
18267;SDS011;9260;49.998;19.880;2022-08-21T02:47:34;230.80;;;112.77;;
18267;SDS011;9260;49.998;19.880;2022-08-21T02:57:38;231.33;;;114.20;;
18267;SDS011;9260;49.998;19.880;2022-08-21T03:07:46;238.47;;;114.03;;
18267;SDS011;9260;49.998;19.880;2022-08-21T03:17:51;242.10;;;114.27;;
18267;SDS011;9260;49.998;19.880;2022-08-21T03:27:57;246.00;;;117.73;;
18267;SDS011;9260;49.998;19.880;2022-08-21T03:38:02;232.63;;;112.73;;
18267;SDS011;9260;49.998;19.880;2022-08-21T03:48:08;233.50;;;110.93;;
18267;SDS011;9260;49.998;19.880;2022-08-21T03:58:14;241.50;;;118.47;;
18267;SDS011;9260;49.998;19.880;2022-08-21T04:08:21;244.20;;;118.47;;
18267;SDS011;9260;49.998;19.880;2022-08-21T04:18:25;243.03;;;115.07;;
18267;SDS011;9260;49.998;19.880;2022-08-21T04:28:30;233.80;;;112.13;;
18267;SDS011;9260;49.998;19.880;2022-08-21T04:38:35;237.80;;;113.20;;
18267;SDS011;9260;49.998;19.880;2022-08-21T04:48:46;245.13;;;115.97;;
18267;SDS011;9260;49.998;19.880;2022-08-21T04:58:51;244.43;;;121.87;;
18267;SDS011;9260;49.998;19.880;2022-08-21T05:09:00;239.03;;;117.13;;
18267;SDS011;9260;49.998;19.880;2022-08-21T05:19:05;249.47;;;133.87;;
18267;SDS011;9260;49.998;19.880;2022-08-21T05:29:10;253.73;;;137.67;;
18267;SDS011;9260;49.998;19.880;2022-08-21T05:39:15;243.20;;;115.60;;
18267;SDS011;9260;49.998;19.880;2022-08-21T05:49:20;237.17;;;115.93;;
18267;SDS011;9260;49.998;19.880;2022-08-21T05:59:24;233.73;;;116.63;;
18267;SDS011;9260;49.998;19.880;2022-08-21T06:09:30;236.53;;;117.63;;
18267;SDS011;9260;49.998;19.880;2022-08-21T06:19:35;238.30;;;121.73;;
18267;SDS011;9260;49.998;19.880;2022-08-21T06:29:41;245.10;;;121.60;;
18267;SDS011;9260;49.998;19.880;2022-08-21T06:39:46;233.07;;;119.47;;
18267;SDS011;9260;49.998;19.880;2022-08-21T06:49:51;250.73;;;119.37;;
18267;SDS011;9260;49.998;19.880;2022-08-21T06:59:56;248.13;;;121.90;;
18267;SDS011;9260;49.998;19.880;2022-08-21T07:10:01;249.10;;;124.27;;
18267;SDS011;9260;49.998;19.880;2022-08-21T07:20:06;239.93;;;123.97;;
18267;SDS011;9260;49.998;19.880;2022-08-21T07:30:12;238.97;;;119.40;;
18267;SDS011;9260;49.998;19.880;2022-08-21T07:40:16;245.50;;;124.13;;
18267;SDS011;9260;49.998;19.880;2022-08-21T07:50:22;247.97;;;127.93;;
18267;SDS011;9260;49.998;19.880;2022-08-21T08:00:27;250.10;;;127.30;;
18267;SDS011;9260;49.998;19.880;2022-08-21T08:10:33;244.70;;;126.63;;
18267;SDS011;9260;49.998;19.880;2022-08-21T08:20:38;245.93;;;122.57;;
18267;SDS011;9260;49.998;19.880;2022-08-21T08:30:44;253.10;;;126.43;;
18267;SDS011;9260;49.998;19.880;2022-08-21T08:40:50;256.67;;;131.07;;
18267;SDS011;9260;49.998;19.880;2022-08-21T08:51:03;255.77;;;128.03;;
18267;SDS011;9260;49.998;19.880;2022-08-21T09:01:15;269.33;;;127.53;;
18267;SDS011;9260;49.998;19.880;2022-08-21T09:11:27;247.90;;;124.47;;
18267;SDS011;9260;49.998;19.880;2022-08-21T09:21:37;245.90;;;128.83;;
18267;SDS011;9260;49.998;19.880;2022-08-21T09:31:52;245.97;;;128.47;;
18267;SDS011;9260;49.998;19.880;2022-08-21T09:41:56;233.20;;;119.77;;
18267;SDS011;9260;49.998;19.880;2022-08-21T09:52:04;233.53;;;123.77;;
18267;SDS011;9260;49.998;19.880;2022-08-21T10:02:21;237.60;;;134.83;;
18267;SDS011;9260;49.998;19.880;2022-08-21T10:12:36;237.17;;;135.83;;
18267;SDS011;9260;49.998;19.880;2022-08-21T10:22:52;241.70;;;131.93;;
18267;SDS011;9260;49.998;19.880;2022-08-21T10:33:13;252.73;;;137.70;;
18267;SDS011;9260;49.998;19.880;2022-08-21T10:43:32;228.80;;;120.40;;
18267;SDS011;9260;49.998;19.880;2022-08-21T10:53:49;222.00;;;112.50;;
18267;SDS011;9260;49.998;19.880;2022-08-21T11:04:09;222.80;;;113.57;;
18267;SDS011;9260;49.998;19.880;2022-08-21T11:14:21;216.83;;;104.67;;
18267;SDS011;9260;49.998;19.880;2022-08-21T11:24:35;207.63;;;103.63;;
18267;SDS011;9260;49.998;19.880;2022-08-21T11:34:50;209.33;;;107.20;;
18267;SDS011;9260;49.998;19.880;2022-08-21T11:45:09;214.43;;;107.47;;
18267;SDS011;9260;49.998;19.880;2022-08-21T11:55:31;218.43;;;118.53;;
18267;SDS011;9260;49.998;19.880;2022-08-21T12:05:44;214.63;;;111.83;;
18267;SDS011;9260;49.998;19.880;2022-08-21T12:16:06;219.20;;;116.60;;
18267;SDS011;9260;49.998;19.880;2022-08-21T12:26:23;214.63;;;112.37;;
18267;SDS011;9260;49.998;19.880;2022-08-21T12:36:38;218.50;;;118.23;;
18267;SDS011;9260;49.998;19.880;2022-08-21T12:46:46;216.30;;;114.83;;
18267;SDS011;9260;49.998;19.880;2022-08-21T12:57:05;216.03;;;112.30;;
18267;SDS011;9260;49.998;19.880;2022-08-21T13:07:11;220.07;;;115.50;;
18267;SDS011;9260;49.998;19.880;2022-08-21T13:17:21;216.63;;;115.00;;
18267;SDS011;9260;49.998;19.880;2022-08-21T13:27:27;216.30;;;118.63;;
18267;SDS011;9260;49.998;19.880;2022-08-21T13:37:34;216.67;;;116.23;;
18267;SDS011;9260;49.998;19.880;2022-08-21T13:47:39;218.90;;;114.77;;
18267;SDS011;9260;49.998;19.880;2022-08-21T13:57:45;224.90;;;115.13;;
18267;SDS011;9260;49.998;19.880;2022-08-21T14:07:49;222.33;;;116.33;;
18267;SDS011;9260;49.998;19.880;2022-08-21T14:18:08;225.20;;;123.57;;
18267;SDS011;9260;49.998;19.880;2022-08-21T14:28:19;224.53;;;109.23;;
18267;SDS011;9260;49.998;19.880;2022-08-21T14:38:30;222.77;;;108.90;;
18267;SDS011;9260;49.998;19.880;2022-08-21T14:48:34;216.93;;;105.20;;
18267;SDS011;9260;49.998;19.880;2022-08-21T14:58:41;215.63;;;102.10;;
18267;SDS011;9260;49.998;19.880;2022-08-21T15:08:51;226.33;;;109.03;;
18267;SDS011;9260;49.998;19.880;2022-08-21T15:18:58;218.73;;;106.50;;
18267;SDS011;9260;49.998;19.880;2022-08-21T15:29:03;232.77;;;109.03;;
18267;SDS011;9260;49.998;19.880;2022-08-21T15:39:10;224.70;;;106.50;;
18267;SDS011;9260;49.998;19.880;2022-08-21T15:49:14;231.23;;;106.43;;
18267;SDS011;9260;49.998;19.880;2022-08-21T15:59:19;229.33;;;104.80;;
18267;SDS011;9260;49.998;19.880;2022-08-21T16:09:25;221.33;;;103.30;;
18267;SDS011;9260;49.998;19.880;2022-08-21T16:19:30;223.30;;;102.67;;
18267;SDS011;9260;49.998;19.880;2022-08-21T16:29:35;225.87;;;100.57;;
18267;SDS011;9260;49.998;19.880;2022-08-21T16:39:42;238.33;;;104.97;;
18267;SDS011;9260;49.998;19.880;2022-08-21T16:49:46;224.97;;;104.77;;
18267;SDS011;9260;49.998;19.880;2022-08-21T16:59:53;230.23;;;103.30;;
18267;SDS011;9260;49.998;19.880;2022-08-21T17:09:57;230.90;;;100.80;;
18267;SDS011;9260;49.998;19.880;2022-08-21T17:20:02;223.40;;;105.00;;
18267;SDS011;9260;49.998;19.880;2022-08-21T17:30:09;224.07;;;101.07;;
18267;SDS011;9260;49.998;19.880;2022-08-21T17:40:16;224.93;;;97.93;;
18267;SDS011;9260;49.998;19.880;2022-08-21T17:50:20;222.37;;;102.70;;
18267;SDS011;9260;49.998;19.880;2022-08-21T18:00:26;226.90;;;100.57;;
18267;SDS011;9260;49.998;19.880;2022-08-21T18:10:31;229.83;;;106.30;;
18267;SDS011;9260;49.998;19.880;2022-08-21T18:20:36;225.00;;;102.20;;
18267;SDS011;9260;49.998;19.880;2022-08-21T18:30:41;226.53;;;102.33;;
18267;SDS011;9260;49.998;19.880;2022-08-21T18:40:48;235.30;;;113.23;;
18267;SDS011;9260;49.998;19.880;2022-08-21T18:50:56;227.13;;;100.03;;
18267;SDS011;9260;49.998;19.880;2022-08-21T19:01:02;223.87;;;99.97;;
18267;SDS011;9260;49.998;19.880;2022-08-21T19:11:07;221.93;;;96.00;;
18267;SDS011;9260;49.998;19.880;2022-08-21T19:21:12;226.00;;;101.40;;
18267;SDS011;9260;49.998;19.880;2022-08-21T19:31:17;226.43;;;99.10;;
18267;SDS011;9260;49.998;19.880;2022-08-21T19:41:26;219.67;;;93.47;;
18267;SDS011;9260;49.998;19.880;2022-08-21T19:51:34;221.53;;;99.00;;
18267;SDS011;9260;49.998;19.880;2022-08-21T20:01:39;220.40;;;100.97;;
18267;SDS011;9260;49.998;19.880;2022-08-21T20:11:44;220.27;;;97.77;;
18267;SDS011;9260;49.998;19.880;2022-08-21T20:21:52;222.83;;;98.03;;
18267;SDS011;9260;49.998;19.880;2022-08-21T20:31:58;218.30;;;96.93;;
18267;SDS011;9260;49.998;19.880;2022-08-21T20:42:06;226.37;;;99.97;;
18267;SDS011;9260;49.998;19.880;2022-08-21T20:52:12;219.80;;;100.37;;
18267;SDS011;9260;49.998;19.880;2022-08-21T21:02:28;217.40;;;99.00;;
18267;SDS011;9260;49.998;19.880;2022-08-21T21:12:43;221.03;;;96.37;;
18267;SDS011;9260;49.998;19.880;2022-08-21T21:22:57;217.83;;;98.20;;
18267;SDS011;9260;49.998;19.880;2022-08-21T21:33:13;219.70;;;95.00;;
18267;SDS011;9260;49.998;19.880;2022-08-21T21:43:22;219.43;;;101.13;;
18267;SDS011;9260;49.998;19.880;2022-08-21T21:53:41;216.17;;;93.40;;
18267;SDS011;9260;49.998;19.880;2022-08-21T22:04:00;223.60;;;96.93;;
18267;SDS011;9260;49.998;19.880;2022-08-21T22:14:12;214.37;;;92.27;;
18267;SDS011;9260;49.998;19.880;2022-08-21T22:24:26;213.93;;;89.13;;
18267;SDS011;9260;49.998;19.880;2022-08-21T22:34:35;216.13;;;95.20;;
18267;SDS011;9260;49.998;19.880;2022-08-21T22:44:48;227.63;;;98.17;;
18267;SDS011;9260;49.998;19.880;2022-08-21T22:54:56;223.53;;;100.13;;
18267;SDS011;9260;49.998;19.880;2022-08-21T23:05:09;214.87;;;92.57;;
18267;SDS011;9260;49.998;19.880;2022-08-21T23:15:22;213.33;;;91.47;;
18267;SDS011;9260;49.998;19.880;2022-08-21T23:25:39;211.97;;;90.20;;
18267;SDS011;9260;49.998;19.880;2022-08-21T23:36:33;216.50;;;91.27;;
18267;SDS011;9260;49.998;19.880;2022-08-21T23:47:16;214.23;;;95.97;;
18267;SDS011;9260;49.998;19.880;2022-08-21T23:58:10;212.43;;;95.07;;
